Terminal Aerodrome Forecast
Issued by NWS Bismarck, ND

Home | Current Version | Previous Version | Text Only | Print | Product List | Glossary Off
Versions: 1 2 3 4 5 6 7 8 9 10 11 12 13 14 15 16 17 18

579
FTUS43 KBIS 202330
TAFISN
TAF
KISN 202330Z 2100/2124 33015G22KT P6SM SKC
     FM210200 01009KT P6SM SCT250
     FM210900 05006KT P6SM BKN110
     FM211400 08006KT P6SM BKN090
     FM211800 10013KT P6SM BKN120=

USA.gov is the U.S. government's official web portal to all federal, state and local government web resources and services.